Time;durP1;ratioP1;P1;durP2;ratioP2;P2;SDS_P1;SDS_P2;PMS_P1;PMS_P2;Temp;Humidity;BMP_temperature;BMP_pressure;BME280_temperature;BME280_humidity;BME280_pressure;Samples;Min_cycle;Max_cycle;Signal;HPM_P1;HPM_P2
2022/03/19 00:01:01;;;;;;;3.83;3.27;;;6.70;98.00;;;;;;6120357;23;20421;-67
2022/03/19 00:03:29;;;;;;;6.23;4.10;;;6.70;98.00;;;;;;6120788;23;20401;-68
2022/03/19 00:05:58;;;;;;;5.50;3.83;;;6.70;98.00;;;;;;6119996;23;20978;-67
2022/03/19 00:08:26;;;;;;;4.80;3.80;;;6.70;98.00;;;;;;6120354;23;20465;-67
2022/03/19 00:10:54;;;;;;;3.83;2.60;;;6.80;98.00;;;;;;6120485;23;20416;-68
2022/03/19 00:13:20;;;;;;;4.23;2.83;;;6.80;98.00;;;;;;6120732;23;20421;-68
2022/03/19 00:15:48;;;;;;;3.13;2.37;;;6.70;98.00;;;;;;6120783;23;20453;-67
2022/03/19 00:18:16;;;;;;;2.83;2.63;;;6.70;98.00;;;;;;6095326;23;20454;-67
2022/03/19 00:20:43;;;;;;;3.70;3.10;;;6.60;98.00;;;;;;6120878;23;20401;-67
2022/03/19 00:23:12;;;;;;;3.97;3.00;;;6.60;98.00;;;;;;6094394;23;20474;-67
2022/03/19 00:25:39;;;;;;;4.40;3.10;;;6.60;98.00;;;;;;6120226;23;20424;-67
2022/03/19 00:28:07;;;;;;;7.03;3.27;;;6.60;98.00;;;;;;6120453;23;20452;-67
2022/03/19 00:30:34;;;;;;;2.50;2.30;;;6.60;98.00;;;;;;6120440;23;20418;-67
2022/03/19 00:33:01;;;;;;;3.10;2.90;;;6.60;98.00;;;;;;6120173;23;20478;-68
2022/03/19 00:35:31;;;;;;;9.87;5.10;;;6.60;98.00;;;;;;6120605;23;20419;-67
2022/03/19 00:37:59;;;;;;;3.67;3.53;;;6.60;98.00;;;;;;6120222;23;20402;-68
2022/03/19 00:40:27;;;;;;;2.20;2.03;;;6.60;98.00;;;;;;6120048;23;20417;-68
2022/03/19 00:42:54;;;;;;;2.43;2.07;;;6.50;98.00;;;;;;6120648;23;20419;-67
2022/03/19 00:45:21;;;;;;;6.87;3.67;;;6.40;98.00;;;;;;6120692;23;20718;-68
2022/03/19 00:47:48;;;;;;;3.67;2.90;;;6.60;98.00;;;;;;6120495;23;20489;-68
2022/03/19 00:50:15;;;;;;;2.47;2.33;;;6.50;98.00;;;;;;6120643;23;20417;-67
2022/03/19 00:52:42;;;;;;;2.40;2.23;;;6.50;98.00;;;;;;6120270;23;20455;-67
2022/03/19 00:55:10;;;;;;;4.37;3.20;;;6.50;98.00;;;;;;6120262;23;20410;-67
2022/03/19 00:57:43;;;;;;;3.37;2.73;;;6.50;98.00;;;;;;6119945;23;20423;-67
2022/03/19 01:00:11;;;;;;;3.80;3.20;;;6.60;98.00;;;;;;6120645;23;20404;-68
2022/03/19 01:02:41;;;;;;;3.80;2.97;;;6.60;98.00;;;;;;6120907;23;20409;-67
2022/03/19 01:05:10;;;;;;;3.53;2.80;;;6.60;98.00;;;;;;6120547;23;20405;-67
2022/03/19 01:07:42;;;;;;;3.70;2.90;;;6.60;98.00;;;;;;6121146;23;20476;-68
2022/03/19 01:10:11;;;;;;;5.13;2.87;;;6.60;98.00;;;;;;6130250;23;20934;-68
2022/03/19 01:12:38;;;;;;;4.90;3.43;;;6.60;98.00;;;;;;6120534;23;20442;-67
2022/03/19 01:15:07;;;;;;;6.50;3.60;;;6.50;98.00;;;;;;6120554;23;20402;-67
2022/03/19 01:17:34;;;;;;;5.97;4.00;;;6.50;98.00;;;;;;6120594;23;20398;-67
2022/03/19 01:20:02;;;;;;;5.20;4.90;;;6.50;98.00;;;;;;6120471;23;20469;-67
2022/03/19 01:22:30;;;;;;;10.77;2.33;;;6.40;98.00;;;;;;6119779;23;20476;-67
2022/03/19 01:24:59;;;;;;;3.00;2.23;;;6.40;98.00;;;;;;6120052;23;20423;-68
2022/03/19 01:27:26;;;;;;;3.90;3.00;;;6.40;98.00;;;;;;6120472;23;20523;-67
2022/03/19 01:29:53;;;;;;;4.10;2.67;;;6.40;98.00;;;;;;6120395;23;20785;-68
2022/03/19 01:32:21;;;;;;;4.50;3.00;;;6.50;98.00;;;;;;6120574;23;20413;-67
2022/03/19 01:34:48;;;;;;;6.70;4.20;;;6.50;98.00;;;;;;6120055;23;20415;-67
2022/03/19 01:37:15;;;;;;;6.53;4.30;;;6.40;98.00;;;;;;6120461;23;20444;-67
2022/03/19 01:39:42;;;;;;;5.27;3.30;;;6.40;98.00;;;;;;6120417;23;20421;-67
2022/03/19 01:42:09;;;;;;;2.47;2.27;;;6.40;98.00;;;;;;6120468;23;20458;-67
2022/03/19 01:44:36;;;;;;;2.73;2.53;;;6.40;98.00;;;;;;6120400;23;20466;-67
2022/03/19 01:47:06;;;;;;;1.80;1.50;;;6.30;98.00;;;;;;6119836;23;20458;-67
2022/03/19 01:49:35;;;;;;;3.20;3.00;;;6.30;98.00;;;;;;6120343;23;20863;-67
2022/03/19 01:52:04;;;;;;;4.40;3.30;;;6.30;98.00;;;;;;6120434;23;20459;-68
2022/03/19 01:54:36;;;;;;;4.17;3.17;;;6.30;98.00;;;;;;6094744;23;20430;-67
2022/03/19 01:57:03;;;;;;;5.37;3.60;;;6.40;98.00;;;;;;6120458;23;20401;-67
2022/03/19 01:59:34;;;;;;;10.40;3.07;;;6.40;98.00;;;;;;6120198;23;20408;-67
2022/03/19 02:02:03;;;;;;;1.47;1.47;;;6.30;98.00;;;;;;6120357;23;20500;-68
2022/03/19 02:04:32;;;;;;;5.43;3.23;;;6.30;98.00;;;;;;6094221;23;20503;-67
2022/03/19 02:07:01;;;;;;;2.17;1.70;;;6.30;98.00;;;;;;6119913;23;20967;-67
2022/03/19 02:09:30;;;;;;;5.33;3.40;;;6.30;98.00;;;;;;6119413;23;20432;-68
2022/03/19 02:11:57;;;;;;;4.57;3.43;;;6.40;98.00;;;;;;6120256;23;20446;-67
2022/03/19 02:14:24;;;;;;;5.47;2.93;;;6.30;98.00;;;;;;6120050;23;20935;-67
2022/03/19 02:16:51;;;;;;;3.87;3.10;;;6.20;98.00;;;;;;6120423;23;20681;-68
2022/03/19 02:19:18;;;;;;;2.57;2.37;;;6.20;98.00;;;;;;6119803;23;20442;-67
2022/03/19 02:21:46;;;;;;;5.70;5.23;;;6.20;98.00;;;;;;6094899;23;20458;-67
2022/03/19 02:27:01;;;;;;;4.70;2.80;;;6.30;98.00;;;;;;6120102;23;20479;-67
2022/03/19 02:29:29;;;;;;;2.20;2.00;;;6.20;98.00;;;;;;6120272;23;20732;-68
2022/03/19 02:31:58;;;;;;;3.83;3.50;;;6.10;98.00;;;;;;6120382;23;20397;-67
2022/03/19 02:34:33;;;;;;;7.53;3.97;;;6.10;98.00;;;;;;6120152;23;20420;-68
2022/03/19 02:37:00;;;;;;;6.30;3.90;;;6.20;98.00;;;;;;6119939;23;20478;-67
2022/03/19 02:39:31;;;;;;;3.53;3.23;;;6.10;98.00;;;;;;6120105;23;20422;-67
2022/03/19 02:42:00;;;;;;;3.63;2.70;;;6.10;98.00;;;;;;6120393;23;20428;-68
2022/03/19 02:44:27;;;;;;;4.07;3.10;;;6.10;98.00;;;;;;6094702;23;20460;-67
2022/03/19 02:46:56;;;;;;;2.93;2.77;;;6.00;98.00;;;;;;6120088;23;20497;-67
2022/03/19 02:49:24;;;;;;;3.57;3.10;;;5.90;98.00;;;;;;6120568;23;20407;-68
2022/03/19 02:51:53;;;;;;;3.90;3.17;;;5.90;98.00;;;;;;6120644;23;20781;-68
2022/03/19 02:54:22;;;;;;;5.37;3.93;;;5.90;98.00;;;;;;6119861;23;20424;-67
2022/03/19 02:56:53;;;;;;;5.87;3.77;;;5.80;98.00;;;;;;6120282;23;20452;-68
2022/03/19 02:59:21;;;;;;;5.20;3.30;;;5.90;98.00;;;;;;6120594;23;20491;-68
2022/03/19 03:01:49;;;;;;;4.30;2.50;;;5.80;98.00;;;;;;6121348;23;20517;-68
2022/03/19 03:04:17;;;;;;;5.47;4.20;;;5.80;98.00;;;;;;6120597;23;20449;-68
2022/03/19 03:06:45;;;;;;;4.60;3.10;;;5.80;98.00;;;;;;6120450;23;20416;-68
2022/03/19 03:09:13;;;;;;;7.53;3.83;;;5.70;98.00;;;;;;6119661;23;20429;-68
2022/03/19 03:11:41;;;;;;;4.47;3.10;;;5.70;98.00;;;;;;6120006;23;20403;-68
2022/03/19 03:14:10;;;;;;;2.93;2.33;;;5.90;98.00;;;;;;6120098;23;20453;-68
2022/03/19 03:16:38;;;;;;;4.70;3.10;;;5.90;98.00;;;;;;6120076;23;20444;-67
2022/03/19 03:19:06;;;;;;;3.80;2.53;;;5.90;98.00;;;;;;6120025;23;20424;-68
2022/03/19 03:21:34;;;;;;;6.73;4.33;;;6.00;98.00;;;;;;6119319;23;20457;-68
2022/03/19 03:24:01;;;;;;;3.30;1.93;;;5.90;98.00;;;;;;6120148;23;20410;-67
2022/03/19 03:26:29;;;;;;;3.13;2.93;;;5.90;98.00;;;;;;6119921;23;20403;-68
2022/03/19 03:28:56;;;;;;;7.87;3.90;;;5.80;98.00;;;;;;6119979;23;20771;-67
2022/03/19 03:31:25;;;;;;;4.07;2.93;;;5.70;98.00;;;;;;6119762;23;20900;-68
2022/03/19 03:33:52;;;;;;;3.30;2.57;;;5.70;98.00;;;;;;6119997;23;20893;-67
2022/03/19 03:36:19;;;;;;;2.80;2.40;;;5.70;98.00;;;;;;6119873;23;20438;-67
2022/03/19 03:38:54;;;;;;;3.60;2.53;;;5.60;98.00;;;;;;6119995;23;20402;-68
2022/03/19 03:41:20;;;;;;;3.50;3.30;;;5.60;98.00;;;;;;6119763;23;20438;-67
2022/03/19 03:43:47;;;;;;;4.07;3.60;;;5.50;98.00;;;;;;6119748;23;20416;-68
2022/03/19 03:46:15;;;;;;;5.77;3.40;;;5.50;98.00;;;;;;6119838;23;20418;-68
2022/03/19 03:48:43;;;;;;;3.20;3.03;;;5.60;98.00;;;;;;6215443;23;21003;-68
2022/03/19 03:51:12;;;;;;;2.90;2.40;;;5.70;98.00;;;;;;6243358;22;20462;-67
2022/03/19 03:53:39;;;;;;;2.60;2.20;;;5.70;98.00;;;;;;6243763;22;20396;-68
2022/03/19 03:56:08;;;;;;;6.30;3.57;;;5.90;98.00;;;;;;6243647;22;20478;-67
2022/03/19 03:58:35;;;;;;;2.70;2.50;;;5.80;98.00;;;;;;6243676;22;20742;-67
2022/03/19 04:01:03;;;;;;;4.23;3.17;;;5.70;98.00;;;;;;6243214;22;20933;-68
2022/03/19 04:03:30;;;;;;;6.27;3.80;;;5.80;98.00;;;;;;6243661;22;20403;-68
2022/03/19 04:05:59;;;;;;;4.30;3.97;;;5.70;98.00;;;;;;6243226;22;20402;-68
2022/03/19 04:08:26;;;;;;;3.43;2.77;;;5.70;98.00;;;;;;6241535;23;20447;-68
2022/03/19 04:10:53;;;;;;;4.30;2.60;;;5.70;98.00;;;;;;6243126;22;20456;-67
2022/03/19 04:13:20;;;;;;;4.73;3.90;;;5.80;98.00;;;;;;6243261;22;20453;-68
2022/03/19 04:15:47;;;;;;;4.40;2.70;;;5.70;98.00;;;;;;6243466;22;20397;-68
2022/03/19 04:18:14;;;;;;;3.83;3.13;;;5.60;98.00;;;;;;6242206;23;20400;-68
2022/03/19 04:20:41;;;;;;;5.63;4.03;;;5.50;98.00;;;;;;6243048;22;20417;-67
2022/03/19 04:23:09;;;;;;;3.30;3.00;;;5.60;98.00;;;;;;6243235;22;20397;-68
2022/03/19 04:25:37;;;;;;;2.43;2.33;;;5.50;98.00;;;;;;6243497;22;20401;-68
2022/03/19 04:28:04;;;;;;;3.63;2.97;;;5.50;98.00;;;;;;6243669;22;20426;-68
2022/03/19 04:30:31;;;;;;;4.60;3.67;;;5.60;98.00;;;;;;6243049;22;20414;-67
2022/03/19 04:33:00;;;;;;;2.00;1.87;;;5.70;98.00;;;;;;6244228;22;20409;-68
2022/03/19 04:38:18;;;;;;;3.07;2.73;;;5.80;98.00;;;;;;6255376;23;20389;-68
2022/03/19 04:40:47;;;;;;;3.80;3.00;;;5.80;98.00;;;;;;6243224;23;20424;-68
2022/03/19 04:43:14;;;;;;;2.50;2.33;;;5.70;98.00;;;;;;6245425;22;20426;-67
2022/03/19 04:45:42;;;;;;;3.50;2.77;;;5.70;98.00;;;;;;6245159;22;20431;-67
2022/03/19 04:48:10;;;;;;;9.80;3.70;;;5.70;98.00;;;;;;6169115;22;20446;-67
2022/03/19 04:50:38;;;;;;;5.40;3.60;;;5.80;98.00;;;;;;6120221;23;20971;-67
2022/03/19 04:53:06;;;;;;;3.03;2.80;;;5.70;98.00;;;;;;6120769;23;20737;-67
2022/03/19 04:55:34;;;;;;;4.13;3.83;;;5.70;98.00;;;;;;6120120;23;20426;-68
2022/03/19 04:58:02;;;;;;;4.50;2.77;;;5.70;98.00;;;;;;6120743;23;20456;-68
2022/03/19 05:00:29;;;;;;;2.60;2.30;;;5.70;98.00;;;;;;6120549;23;20418;-67
2022/03/19 05:02:56;;;;;;;8.53;3.40;;;5.70;98.00;;;;;;6120573;23;20746;-68
2022/03/19 05:05:26;;;;;;;2.47;2.33;;;5.60;98.00;;;;;;6120251;23;20453;-68
2022/03/19 05:07:53;;;;;;;4.97;3.27;;;5.50;98.00;;;;;;6120532;23;20816;-67
2022/03/19 05:13:07;;;;;;;4.20;3.43;;;5.50;98.00;;;;;;6120564;23;20455;-67
2022/03/19 05:15:34;;;;;;;3.23;2.47;;;5.40;98.00;;;;;;6120331;23;20418;-67
2022/03/19 05:18:01;;;;;;;2.67;2.50;;;5.40;98.00;;;;;;6120236;23;20985;-67
2022/03/19 05:20:28;;;;;;;4.83;3.93;;;5.30;98.00;;;;;;6120430;23;20530;-67
2022/03/19 05:22:55;;;;;;;3.20;3.00;;;5.30;98.00;;;;;;6120526;23;20402;-68
2022/03/19 05:25:22;;;;;;;2.00;1.50;;;5.30;98.00;;;;;;6120374;23;20418;-68
2022/03/19 05:27:49;;;;;;;2.27;2.13;;;5.40;98.00;;;;;;6120659;23;20509;-67
2022/03/19 05:30:18;;;;;;;4.60;3.30;;;5.30;98.00;;;;;;6120308;23;20460;-68
2022/03/19 05:32:45;;;;;;;12.60;3.90;;;5.30;98.00;;;;;;6120130;23;20503;-67
2022/03/19 05:35:12;;;;;;;3.50;2.83;;;5.40;98.00;;;;;;6120232;23;20404;-67
2022/03/19 05:37:40;;;;;;;6.30;3.67;;;5.40;98.00;;;;;;6120615;23;20476;-67
2022/03/19 05:40:08;;;;;;;3.90;3.67;;;5.50;98.00;;;;;;6120515;23;20471;-68
2022/03/19 05:42:36;;;;;;;5.00;3.33;;;5.50;98.00;;;;;;6120497;23;20486;-68
2022/03/19 05:45:03;;;;;;;5.03;3.60;;;5.50;98.00;;;;;;6120506;23;20401;-68
2022/03/19 05:47:31;;;;;;;3.40;3.20;;;5.40;98.00;;;;;;6119802;23;20432;-67
2022/03/19 05:49:58;;;;;;;5.63;3.73;;;5.40;98.00;;;;;;6120525;23;20481;-67
2022/03/19 05:52:25;;;;;;;1.93;1.83;;;5.30;98.00;;;;;;6120390;23;20419;-67
2022/03/19 05:54:52;;;;;;;3.30;2.70;;;5.20;98.00;;;;;;6120081;23;20440;-67
2022/03/19 05:57:19;;;;;;;4.63;3.67;;;5.40;98.00;;;;;;6120419;23;20418;-67
2022/03/19 05:59:46;;;;;;;3.80;3.60;;;5.40;98.00;;;;;;6120096;23;20431;-67
2022/03/19 06:02:13;;;;;;;4.53;3.53;;;5.40;98.00;;;;;;6120722;23;20911;-68
2022/03/19 06:04:50;;;;;;;3.03;2.73;;;5.40;98.00;;;;;;6119926;23;20427;-67
2022/03/19 06:07:18;;;;;;;4.07;3.13;;;5.50;98.00;;;;;;6120452;23;20457;-67
2022/03/19 06:09:45;;;;;;;2.33;2.13;;;5.50;98.00;;;;;;6119945;23;21003;-67
2022/03/19 06:12:12;;;;;;;5.17;3.90;;;5.50;98.00;;;;;;6120019;23;20419;-67
2022/03/19 06:14:39;;;;;;;4.70;3.50;;;5.60;98.00;;;;;;6120302;23;20407;-68
2022/03/19 06:17:07;;;;;;;5.30;3.80;;;5.60;98.00;;;;;;6120224;23;20446;-67
2022/03/19 06:19:33;;;;;;;3.47;2.73;;;5.60;98.00;;;;;;6094376;23;20427;-67
2022/03/19 06:22:02;;;;;;;2.17;1.90;;;5.50;98.00;;;;;;6120166;23;20899;-68
2022/03/19 06:24:29;;;;;;;3.63;3.50;;;5.50;98.00;;;;;;6119944;23;20745;-68
2022/03/19 06:26:56;;;;;;;7.87;3.87;;;5.50;98.00;;;;;;6120089;23;20457;-68
2022/03/19 06:29:23;;;;;;;3.70;3.50;;;5.50;98.00;;;;;;6119829;23;20516;-68
2022/03/19 06:31:50;;;;;;;3.10;2.10;;;5.60;98.00;;;;;;6119486;23;20422;-68
2022/03/19 06:34:17;;;;;;;4.90;4.37;;;5.60;98.00;;;;;;6120084;23;20435;-68
2022/03/19 06:39:30;;;;;;;3.33;2.37;;;5.60;98.00;;;;;;6120104;23;20412;-68
2022/03/19 06:41:59;;;;;;;3.80;2.93;;;5.70;98.00;;;;;;6119775;23;20403;-68
2022/03/19 06:44:25;;;;;;;3.57;2.20;;;5.70;98.00;;;;;;6119622;23;20510;-67
2022/03/19 06:46:52;;;;;;;3.03;2.87;;;5.80;98.00;;;;;;6119701;23;20450;-67
2022/03/19 06:49:19;;;;;;;3.50;3.30;;;5.70;98.00;;;;;;6119917;23;20439;-67
2022/03/19 06:51:46;;;;;;;4.23;2.90;;;5.70;98.00;;;;;;6119925;23;20772;-67
2022/03/19 06:54:13;;;;;;;3.33;3.17;;;5.70;98.00;;;;;;6120113;23;20398;-68
2022/03/19 06:56:41;;;;;;;2.23;1.73;;;5.90;98.00;;;;;;6119467;23;20489;-68
2022/03/19 06:59:08;;;;;;;6.87;3.13;;;5.90;98.00;;;;;;6119809;23;20455;-68
2022/03/19 07:01:36;;;;;;;2.97;2.53;;;5.80;98.00;;;;;;6120005;23;20423;-67
2022/03/19 07:04:04;;;;;;;3.67;2.77;;;5.80;98.00;;;;;;6120245;23;20417;-68
2022/03/19 07:06:31;;;;;;;2.80;2.37;;;5.90;98.00;;;;;;6094939;23;20749;-67
2022/03/19 07:08:58;;;;;;;4.20;3.30;;;6.00;98.00;;;;;;6119805;23;20451;-67
2022/03/19 07:11:25;;;;;;;3.17;2.97;;;6.00;98.00;;;;;;6120136;23;20427;-67
2022/03/19 07:14:01;;;;;;;2.50;1.90;;;6.10;98.00;;;;;;6119719;23;20421;-67
2022/03/19 07:16:28;;;;;;;6.90;4.73;;;6.10;98.00;;;;;;6119613;23;20706;-67
2022/03/19 07:18:55;;;;;;;2.10;1.67;;;6.20;98.00;;;;;;6120055;23;20602;-67
2022/03/19 07:21:22;;;;;;;5.70;4.00;;;6.30;98.00;;;;;;6119761;23;20733;-67
2022/03/19 07:23:49;;;;;;;5.77;2.70;;;6.40;98.00;;;;;;6119892;23;20421;-68
2022/03/19 07:26:16;;;;;;;2.73;1.90;;;6.40;98.00;;;;;;6119866;23;20490;-67
2022/03/19 07:28:43;;;;;;;4.07;2.47;;;6.40;98.00;;;;;;6119469;23;20445;-67
2022/03/19 07:31:15;;;;;;;5.53;3.20;;;6.40;98.00;;;;;;6119156;23;20405;-67
2022/03/19 07:33:42;;;;;;;4.77;3.60;;;6.50;98.00;;;;;;6119560;23;20464;-67
2022/03/19 07:36:09;;;;;;;3.70;3.50;;;6.50;98.00;;;;;;6119747;23;20419;-66
2022/03/19 07:38:36;;;;;;;5.87;3.30;;;6.60;98.00;;;;;;6119380;23;20455;-66
2022/03/19 07:43:48;;;;;;;4.23;3.00;;;6.80;98.00;;;;;;6118926;23;20389;-66
2022/03/19 07:46:17;;;;;;;2.87;2.67;;;6.80;98.00;;;;;;6119788;23;20406;-66
2022/03/19 07:48:44;;;;;;;8.50;3.60;;;6.90;98.00;;;;;;6119308;23;20448;-66
2022/03/19 07:51:11;;;;;;;4.77;3.03;;;7.00;98.00;;;;;;6119640;23;20958;-66
2022/03/19 07:53:38;;;;;;;4.37;2.60;;;7.10;98.00;;;;;;6093589;23;20670;-67
2022/03/19 07:56:06;;;;;;;3.40;3.10;;;7.20;98.00;;;;;;6119583;23;20440;-67
2022/03/19 07:58:33;;;;;;;3.73;2.23;;;7.20;98.00;;;;;;6119788;23;20408;-67
2022/03/19 08:01:00;;;;;;;5.33;3.27;;;7.30;98.00;;;;;;6119860;23;20422;-66
2022/03/19 08:03:28;;;;;;;2.40;2.20;;;7.40;98.00;;;;;;6119922;23;20433;-66
2022/03/19 08:05:55;;;;;;;7.03;2.37;;;7.60;98.00;;;;;;6118723;23;20445;-67
2022/03/19 08:08:22;;;;;;;4.10;3.33;;;7.60;98.00;;;;;;6120459;23;20400;-66
2022/03/19 08:10:49;;;;;;;4.73;3.67;;;7.70;98.00;;;;;;6121892;23;20420;-66
2022/03/19 08:13:17;;;;;;;6.70;4.33;;;7.80;98.00;;;;;;6121605;23;20419;-66
2022/03/19 08:15:44;;;;;;;5.83;3.80;;;7.90;98.00;;;;;;6121492;23;20419;-66
2022/03/19 08:18:13;;;;;;;2.73;1.87;;;8.00;98.00;;;;;;6121221;23;20449;-66
2022/03/19 08:20:41;;;;;;;11.37;3.83;;;8.10;97.20;;;;;;6094863;23;20466;-67
2022/03/19 08:23:10;;;;;;;3.60;2.73;;;8.10;97.50;;;;;;6120943;23;20454;-66
2022/03/19 08:25:37;;;;;;;4.60;3.20;;;8.40;96.50;;;;;;6120999;23;20399;-66
2022/03/19 08:28:06;;;;;;;3.00;2.83;;;8.50;96.00;;;;;;6120576;23;20400;-66
2022/03/19 08:30:34;;;;;;;3.73;2.23;;;8.60;96.00;;;;;;6120358;23;20739;-66
2022/03/19 08:33:01;;;;;;;4.33;2.27;;;8.70;96.30;;;;;;6120860;23;20581;-66
2022/03/19 08:35:29;;;;;;;3.93;3.20;;;8.70;95.20;;;;;;6120408;23;20419;-66
2022/03/19 08:40:38;;;;;;;5.07;3.37;;;8.80;95.60;;;;;;6119142;23;20424;-66
2022/03/19 08:43:05;;;;;;;4.37;3.03;;;8.90;95.60;;;;;;6094999;23;20770;-66
2022/03/19 08:45:32;;;;;;;8.30;3.73;;;9.00;95.50;;;;;;6120770;23;20412;-66
2022/03/19 08:48:00;;;;;;;7.93;3.63;;;9.10;95.30;;;;;;6118748;23;20432;-66
2022/03/19 08:50:28;;;;;;;3.87;2.20;;;9.20;95.40;;;;;;6118971;23;20431;-66
2022/03/19 08:53:00;;;;;;;3.47;2.33;;;9.40;95.10;;;;;;6120130;23;20429;-66
2022/03/19 08:55:27;;;;;;;4.00;3.10;;;9.40;94.80;;;;;;6103759;23;20405;-67
2022/03/19 08:57:54;;;;;;;4.20;3.17;;;9.50;94.40;;;;;;6119773;23;20481;-68
2022/03/19 09:00:21;;;;;;;2.13;1.97;;;9.70;94.60;;;;;;6093088;23;20418;-67
2022/03/19 09:02:49;;;;;;;4.17;2.40;;;10.10;94.70;;;;;;6119438;23;20408;-66
2022/03/19 09:05:16;;;;;;;8.27;2.40;;;10.20;92.10;;;;;;6119551;23;20494;-67
2022/03/19 09:07:44;;;;;;;6.07;2.53;;;10.10;91.70;;;;;;6119778;23;20413;-67
2022/03/19 09:10:13;;;;;;;4.80;3.10;;;10.10;91.90;;;;;;6119419;23;20430;-67
2022/03/19 09:12:41;;;;;;;6.40;4.40;;;10.10;92.10;;;;;;6119498;23;20462;-67
2022/03/19 09:15:10;;;;;;;4.57;3.00;;;10.10;92.10;;;;;;6119204;23;20411;-67
2022/03/19 09:17:40;;;;;;;3.73;2.30;;;10.10;91.30;;;;;;6119139;23;20436;-66
2022/03/19 09:20:12;;;;;;;6.63;3.47;;;10.20;91.20;;;;;;6118709;23;20725;-66
2022/03/19 09:22:39;;;;;;;3.43;3.10;;;10.30;91.40;;;;;;6119587;23;20863;-67
2022/03/19 09:25:08;;;;;;;3.57;3.30;;;10.40;90.80;;;;;;6093100;23;20459;-67
2022/03/19 09:27:39;;;;;;;4.30;3.10;;;10.40;90.70;;;;;;6119007;23;20490;-66
2022/03/19 09:30:08;;;;;;;4.93;2.97;;;10.40;90.50;;;;;;6118842;23;20436;-66
2022/03/19 09:32:36;;;;;;;5.00;3.10;;;10.40;90.80;;;;;;6120798;23;20404;-66
2022/03/19 09:35:03;;;;;;;5.43;3.77;;;10.50;90.40;;;;;;6120411;23;20411;-66
2022/03/19 09:37:31;;;;;;;5.00;2.93;;;10.60;90.80;;;;;;6120394;23;20497;-66
2022/03/19 09:39:59;;;;;;;4.33;2.83;;;10.80;90.60;;;;;;6120605;23;20749;-66
2022/03/19 09:42:27;;;;;;;5.83;4.10;;;10.90;89.20;;;;;;6120327;23;20485;-67
2022/03/19 09:44:56;;;;;;;3.53;2.20;;;11.00;89.10;;;;;;6120810;23;20465;-66
2022/03/19 09:47:25;;;;;;;5.80;2.97;;;11.10;89.70;;;;;;6120485;23;20425;-66
2022/03/19 09:49:52;;;;;;;4.07;2.97;;;11.30;89.10;;;;;;6120378;23;20477;-67
2022/03/19 09:52:24;;;;;;;4.70;2.80;;;11.40;88.50;;;;;;6120606;23;20460;-66
2022/03/19 09:54:51;;;;;;;2.93;2.60;;;11.50;88.30;;;;;;6095710;23;20398;-66
2022/03/19 09:57:19;;;;;;;6.50;3.23;;;11.60;88.20;;;;;;6120559;23;20414;-67
2022/03/19 09:59:46;;;;;;;5.10;2.73;;;11.70;88.20;;;;;;6094377;23;20477;-67
2022/03/19 10:02:15;;;;;;;2.73;2.57;;;11.70;87.50;;;;;;6120547;23;20421;-66
2022/03/19 10:04:42;;;;;;;3.87;2.97;;;11.90;87.70;;;;;;6120514;23;20705;-67
2022/03/19 10:09:57;;;;;;;7.13;3.33;;;12.10;86.20;;;;;;6120099;23;20432;-67
2022/03/19 10:12:30;;;;;;;5.13;3.13;;;12.20;87.00;;;;;;6120330;23;20451;-66
2022/03/19 10:14:59;;;;;;;8.57;3.03;;;12.40;86.50;;;;;;6120295;23;20480;-67
2022/03/19 10:17:29;;;;;;;5.70;3.23;;;12.50;86.80;;;;;;6120414;23;20418;-66
2022/03/19 10:20:00;;;;;;;5.03;3.47;;;12.60;86.70;;;;;;6120328;23;20482;-66
2022/03/19 10:22:29;;;;;;;5.83;3.50;;;12.80;86.10;;;;;;6120042;23;20463;-67
2022/03/19 10:25:01;;;;;;;4.70;2.97;;;13.10;86.80;;;;;;6120264;23;20960;-66
2022/03/19 10:27:33;;;;;;;3.90;3.33;;;13.20;85.60;;;;;;6119998;23;20400;-67
2022/03/19 10:30:10;;;;;;;4.47;3.27;;;13.40;84.90;;;;;;6120149;23;20524;-67
2022/03/19 10:32:40;;;;;;;6.10;2.83;;;13.20;83.40;;;;;;6120193;23;20422;-67
2022/03/19 10:35:24;;;;;;;7.93;4.23;;;13.10;84.10;;;;;;6120490;23;20449;-66
2022/03/19 10:37:51;;;;;;;4.77;2.60;;;12.80;84.50;;;;;;6120449;23;20866;-67
2022/03/19 10:40:19;;;;;;;5.47;3.37;;;12.60;84.60;;;;;;6120061;23;20474;-67
2022/03/19 10:42:46;;;;;;;4.17;2.80;;;12.80;83.80;;;;;;6120204;23;20966;-67
2022/03/19 10:45:21;;;;;;;4.30;3.00;;;13.10;82.90;;;;;;6119632;23;20416;-66
2022/03/19 10:47:49;;;;;;;4.23;2.33;;;13.30;82.30;;;;;;6119909;23;20461;-67
2022/03/19 10:50:20;;;;;;;5.50;3.67;;;13.70;82.80;;;;;;6119743;23;21023;-66
2022/03/19 10:52:47;;;;;;;3.47;2.70;;;14.10;80.10;;;;;;6119840;23;20941;-66
2022/03/19 10:55:14;;;;;;;4.30;2.40;;;14.20;78.60;;;;;;6120181;23;20427;-67
2022/03/19 10:57:43;;;;;;;3.23;2.57;;;14.30;76.40;;;;;;6120028;23;20388;-67
2022/03/19 11:00:10;;;;;;;2.23;2.03;;;14.40;76.60;;;;;;6120172;23;20408;-66
2022/03/19 11:02:43;;;;;;;3.93;2.63;;;14.60;75.80;;;;;;6120021;23;20883;-67
2022/03/19 11:05:12;;;;;;;6.03;3.00;;;14.80;76.20;;;;;;6093958;23;20725;-67
2022/03/19 11:07:49;;;;;;;3.67;2.17;;;15.10;74.60;;;;;;6120414;23;20413;-67
2022/03/19 11:10:19;;;;;;;4.60;2.20;;;15.20;75.00;;;;;;6093759;23;20446;-67
2022/03/19 11:12:51;;;;;;;3.23;2.50;;;15.50;74.30;;;;;;6120308;23;20411;-67
2022/03/19 11:15:20;;;;;;;4.20;2.33;;;15.70;73.50;;;;;;6119822;23;20405;-67
2022/03/19 11:17:50;;;;;;;2.90;1.83;;;16.00;72.60;;;;;;6120053;23;20422;-66
2022/03/19 11:20:18;;;;;;;3.37;2.27;;;16.20;73.30;;;;;;6119943;23;20427;-67
2022/03/19 11:22:50;;;;;;;2.83;2.20;;;16.20;71.60;;;;;;6094092;23;20447;-66
2022/03/19 11:25:23;;;;;;;4.10;2.10;;;16.10;72.00;;;;;;6119706;23;20408;-67
2022/03/19 11:27:52;;;;;;;4.17;2.13;;;16.10;73.00;;;;;;6119974;23;20404;-66
2022/03/19 11:30:22;;;;;;;4.13;3.13;;;16.30;74.00;;;;;;6119954;23;20504;-67
2022/03/19 11:33:08;;;;;;;3.27;1.97;;;16.00;73.60;;;;;;6119858;23;20427;-67
2022/03/19 11:35:38;;;;;;;4.67;2.70;;;15.90;73.60;;;;;;6119454;23;20462;-66
2022/03/19 11:38:11;;;;;;;4.50;3.00;;;15.30;74.20;;;;;;6120013;23;20423;-66
2022/03/19 11:40:43;;;;;;;4.90;2.57;;;14.90;74.50;;;;;;6119482;23;20851;-67
2022/03/19 11:43:10;;;;;;;3.97;3.10;;;14.40;74.90;;;;;;6120648;23;20399;-67
2022/03/19 11:45:52;;;;;;;2.57;2.03;;;14.10;75.80;;;;;;6121002;23;20483;-67
2022/03/19 11:48:42;;;;;;;3.17;2.50;;;13.70;76.50;;;;;;6120681;23;20496;-67
2022/03/19 11:51:31;;;;;;;3.27;1.80;;;13.80;77.70;;;;;;6120721;23;20445;-67
2022/03/19 11:54:00;;;;;;;3.30;2.30;;;14.40;77.70;;;;;;6094787;23;20965;-67
2022/03/19 11:56:28;;;;;;;3.33;2.40;;;15.30;76.60;;;;;;6120537;23;20421;-67
2022/03/19 11:58:56;;;;;;;5.53;2.90;;;15.80;74.60;;;;;;6121021;23;20745;-67
2022/03/19 12:01:58;;;;;;;2.37;2.03;;;15.90;74.30;;;;;;6121046;23;20408;-67
2022/03/19 12:04:40;;;;;;;4.13;2.03;;;16.40;74.70;;;;;;6120633;23;20419;-67
2022/03/19 12:07:12;;;;;;;4.10;2.40;;;16.70;70.50;;;;;;6120889;23;20402;-67
2022/03/19 12:09:59;;;;;;;3.10;2.53;;;16.70;70.90;;;;;;6120213;23;20513;-67
2022/03/19 12:12:27;;;;;;;4.80;2.10;;;17.10;71.30;;;;;;6120604;23;20928;-67
2022/03/19 12:14:56;;;;;;;4.90;2.50;;;17.10;69.60;;;;;;6120469;23;20466;-67
2022/03/19 12:17:30;;;;;;;2.93;2.23;;;17.00;69.80;;;;;;6121057;23;20430;-67
2022/03/19 12:20:00;;;;;;;2.70;1.90;;;17.10;68.80;;;;;;6121255;23;20403;-67
2022/03/19 12:22:34;;;;;;;2.10;1.97;;;17.30;68.90;;;;;;6121097;23;20405;-67
2022/03/19 12:25:21;;;;;;;4.83;3.03;;;17.50;68.70;;;;;;6121043;23;20405;-67
2022/03/19 12:27:52;;;;;;;2.80;2.10;;;17.60;69.10;;;;;;6120757;23;20454;-67
2022/03/19 12:30:21;;;;;;;3.73;2.20;;;17.90;68.70;;;;;;6120333;23;20449;-67
2022/03/19 12:32:54;;;;;;;2.70;2.10;;;18.20;67.30;;;;;;6121040;23;20499;-67
2022/03/19 12:35:21;;;;;;;2.53;2.03;;;18.20;67.10;;;;;;6120906;23;20437;-67
2022/03/19 12:37:52;;;;;;;3.23;2.10;;;17.90;66.60;;;;;;6120872;23;20421;-67
2022/03/19 12:40:21;;;;;;;4.23;1.80;;;17.30;66.90;;;;;;6120833;23;20433;-67
2022/03/19 12:42:53;;;;;;;2.63;1.80;;;16.60;66.70;;;;;;6120462;23;20984;-67
2022/03/19 12:45:36;;;;;;;2.07;1.47;;;15.80;69.10;;;;;;6120832;23;20413;-67
2022/03/19 12:48:09;;;;;;;2.40;2.00;;;15.40;69.90;;;;;;6120402;23;20436;-67
2022/03/19 12:50:36;;;;;;;2.07;1.63;;;15.00;71.00;;;;;;6120316;23;20943;-67
2022/03/19 12:53:05;;;;;;;1.63;1.47;;;14.90;72.00;;;;;;6120802;23;20749;-67
2022/03/19 12:55:32;;;;;;;1.93;1.67;;;15.60;71.70;;;;;;6120392;23;20456;-67
2022/03/19 12:58:02;;;;;;;5.63;2.80;;;16.00;70.00;;;;;;6094576;23;20428;-67
2022/03/19 13:00:29;;;;;;;4.30;1.80;;;16.50;69.50;;;;;;6120721;23;20408;-67
2022/03/19 13:02:56;;;;;;;2.60;1.93;;;16.90;68.10;;;;;;6120866;23;20424;-67
2022/03/19 13:05:23;;;;;;;3.10;1.93;;;17.30;67.90;;;;;;6120567;23;20795;-67
2022/03/19 13:08:06;;;;;;;2.03;1.53;;;17.70;67.00;;;;;;6120524;23;20405;-67
2022/03/19 13:10:41;;;;;;;4.60;2.13;;;18.10;66.40;;;;;;6095421;23;20490;-67
2022/03/19 13:13:09;;;;;;;2.73;1.80;;;18.60;64.70;;;;;;6121113;23;20687;-67
2022/03/19 13:15:36;;;;;;;2.40;1.67;;;18.60;63.40;;;;;;6120435;23;20405;-67
2022/03/19 13:18:05;;;;;;;2.23;1.87;;;18.60;63.40;;;;;;6120756;23;20416;-67
2022/03/19 13:20:32;;;;;;;2.87;1.97;;;18.30;62.10;;;;;;6120811;23;20435;-67